Time;durP1;ratioP1;P1;durP2;ratioP2;P2;SDS_P1;SDS_P2;PMS_P1;PMS_P2;Temp;Humidity;BMP_temperature;BMP_pressure;BME280_temperature;BME280_humidity;BME280_pressure;Samples;Min_cycle;Max_cycle;Signal;HPM_P1;HPM_P2
2022/12/10 00:01:20;;;;;;;56.47;28.70;;;-1.10;99.90;;;;;;7358132;19;20631;-46
2022/12/10 00:03:47;;;;;;;58.25;28.83;;;-1.00;99.90;;;;;;7362934;19;20011;-47
2022/12/10 00:06:19;;;;;;;59.55;30.40;;;-1.00;99.90;;;;;;7364569;19;20026;-50
2022/12/10 00:08:47;;;;;;;56.70;29.42;;;-1.00;99.90;;;;;;7365064;19;20452;-46
2022/12/10 00:11:15;;;;;;;55.80;28.40;;;-1.00;99.90;;;;;;7367835;19;20105;-48
2022/12/10 00:13:42;;;;;;;58.45;30.08;;;-1.00;99.90;;;;;;7368209;19;20023;-52
2022/12/10 00:16:11;;;;;;;56.53;28.88;;;-0.90;99.90;;;;;;7367594;19;20033;-50
2022/12/10 00:18:38;;;;;;;58.35;29.52;;;-0.90;99.90;;;;;;7362340;19;20051;-48
2022/12/10 00:21:07;;;;;;;59.22;28.77;;;-0.90;99.90;;;;;;7358140;19;20051;-52
2022/12/10 00:23:33;;;;;;;52.72;28.60;;;-1.00;99.90;;;;;;7358382;19;20490;-52
2022/12/10 00:26:05;;;;;;;54.40;28.38;;;-0.90;99.90;;;;;;7366734;19;20022;-49
2022/12/10 00:28:32;;;;;;;53.40;28.90;;;-1.00;99.90;;;;;;7364695;19;20445;-47
2022/12/10 00:31:29;;;;;;;56.67;29.98;;;-0.90;99.90;;;;;;7366464;19;20509;-47
2022/12/10 00:33:57;;;;;;;52.20;28.17;;;-0.90;99.90;;;;;;7367760;19;20018;-51
2022/12/10 00:36:27;;;;;;;62.72;31.60;;;-1.00;99.90;;;;;;7367582;19;20019;-51
2022/12/10 00:38:54;;;;;;;53.20;29.02;;;-1.00;99.90;;;;;;7366413;19;20474;-50
2022/12/10 00:41:21;;;;;;;56.97;28.52;;;-1.00;99.90;;;;;;7368022;19;20085;-50
2022/12/10 00:43:48;;;;;;;55.13;27.25;;;-1.00;99.90;;;;;;7369862;19;20038;-50
2022/12/10 00:46:16;;;;;;;54.00;30.90;;;-1.00;99.90;;;;;;7369063;19;20452;-49
2022/12/10 00:48:43;;;;;;;62.95;31.45;;;-1.00;99.90;;;;;;7367255;19;20014;-47
2022/12/10 00:51:11;;;;;;;55.03;28.33;;;-1.10;99.90;;;;;;7366367;19;20030;-51
2022/12/10 00:53:38;;;;;;;59.55;28.35;;;-1.00;99.90;;;;;;7365787;19;20581;-50
2022/12/10 00:56:08;;;;;;;57.28;30.13;;;-1.10;99.90;;;;;;7362779;19;20037;-48
2022/12/10 00:58:36;;;;;;;53.85;28.30;;;-1.00;99.90;;;;;;7368279;19;20390;-49
2022/12/10 01:01:15;;;;;;;55.53;31.15;;;-1.10;99.90;;;;;;7367644;19;20018;-48
2022/12/10 01:03:42;;;;;;;55.22;28.60;;;-1.10;99.90;;;;;;7367926;19;20026;-46
2022/12/10 01:06:30;;;;;;;63.92;30.75;;;-1.10;99.90;;;;;;7358059;19;20291;-50
2022/12/10 01:09:00;;;;;;;61.00;30.73;;;-1.20;99.90;;;;;;7359913;19;20031;-46
2022/12/10 01:11:32;;;;;;;58.83;29.67;;;-1.20;99.90;;;;;;7353451;19;20014;-49
2022/12/10 01:13:59;;;;;;;62.78;31.63;;;-1.20;99.90;;;;;;7364482;19;20010;-47
2022/12/10 01:16:26;;;;;;;58.50;30.77;;;-1.20;99.90;;;;;;7363488;19;20022;-46
2022/12/10 01:18:54;;;;;;;61.67;30.55;;;-1.20;99.90;;;;;;7364641;19;20513;-45
2022/12/10 01:21:22;;;;;;;56.38;29.52;;;-1.30;99.90;;;;;;7360307;19;20139;-46
2022/12/10 01:23:49;;;;;;;57.50;29.73;;;-1.30;99.90;;;;;;7368753;19;20446;-46
2022/12/10 01:26:20;;;;;;;52.88;28.10;;;-1.30;99.90;;;;;;7365523;19;20034;-45
2022/12/10 01:28:46;;;;;;;61.65;32.05;;;-1.40;99.90;;;;;;7365538;19;20129;-46
2022/12/10 01:31:22;;;;;;;64.22;32.30;;;-1.40;99.90;;;;;;7367650;19;20462;-45
2022/12/10 01:33:51;;;;;;;61.67;31.30;;;-1.40;99.90;;;;;;7367061;19;20014;-47
2022/12/10 01:36:21;;;;;;;60.03;31.55;;;-1.40;99.90;;;;;;7367949;19;20039;-49
2022/12/10 01:38:47;;;;;;;60.05;31.23;;;-1.50;99.90;;;;;;7367701;19;20022;-45
2022/12/10 01:41:22;;;;;;;62.80;32.03;;;-1.50;99.90;;;;;;7362548;19;20019;-45
2022/12/10 01:43:59;;;;;;;60.03;31.23;;;-1.50;99.90;;;;;;7366036;19;20019;-48
2022/12/10 01:46:30;;;;;;;66.32;32.22;;;-1.50;99.90;;;;;;7367282;19;20352;-47
2022/12/10 01:48:58;;;;;;;62.42;32.38;;;-1.50;99.90;;;;;;7368542;19;20101;-46
2022/12/10 01:51:28;;;;;;;74.38;34.28;;;-1.50;99.90;;;;;;7358885;19;20019;-48
2022/12/10 01:54:06;;;;;;;66.78;32.20;;;-1.60;99.90;;;;;;7356563;19;20022;-46
2022/12/10 01:56:38;;;;;;;63.58;32.03;;;-1.60;99.90;;;;;;7354723;19;20047;-49
2022/12/10 01:59:05;;;;;;;64.68;33.97;;;-1.60;99.90;;;;;;7351027;19;20082;-47
2022/12/10 02:02:00;;;;;;;64.55;33.38;;;-1.60;99.90;;;;;;7352771;19;20941;-48
2022/12/10 02:04:37;;;;;;;67.05;33.67;;;-1.60;99.90;;;;;;7357738;19;20317;-51
2022/12/10 02:07:38;;;;;;;63.25;32.88;;;-1.60;99.90;;;;;;7351026;19;20038;-47
2022/12/10 02:10:43;;;;;;;68.72;33.67;;;-1.60;99.90;;;;;;7362235;19;20391;-48
2022/12/10 02:13:21;;;;;;;69.55;35.67;;;-1.60;99.90;;;;;;7363265;19;20034;-48
2022/12/10 02:15:58;;;;;;;68.72;32.53;;;-1.70;99.90;;;;;;7361255;19;20471;-46
2022/12/10 02:18:34;;;;;;;72.38;35.05;;;-1.60;99.90;;;;;;7365749;19;20026;-48
2022/12/10 02:21:08;;;;;;;74.50;34.08;;;-1.70;99.90;;;;;;7364017;19;20010;-50
2022/12/10 02:23:39;;;;;;;71.20;34.42;;;-1.70;99.90;;;;;;7364740;19;20018;-49
2022/12/10 02:26:17;;;;;;;70.07;33.97;;;-1.80;99.90;;;;;;7365319;19;20022;-51
2022/12/10 02:29:20;;;;;;;73.13;35.53;;;-1.80;99.90;;;;;;7362567;19;20618;-51
2022/12/10 02:32:08;;;;;;;73.72;34.75;;;-1.70;99.90;;;;;;7362487;19;20490;-48
2022/12/10 02:34:42;;;;;;;69.78;35.22;;;-1.80;99.90;;;;;;7359983;19;20021;-52
2022/12/10 02:37:16;;;;;;;69.40;33.15;;;-1.80;99.90;;;;;;7364189;19;20034;-52
2022/12/10 02:39:48;;;;;;;80.28;37.95;;;-1.80;99.90;;;;;;7361272;19;20023;-51
2022/12/10 02:42:17;;;;;;;76.65;34.65;;;-1.80;99.90;;;;;;7356083;19;20408;-52
2022/12/10 02:44:48;;;;;;;73.47;33.33;;;-1.80;99.90;;;;;;7349416;19;20113;-52
2022/12/10 02:47:19;;;;;;;72.22;34.78;;;-1.80;99.90;;;;;;7356826;19;20098;-48
2022/12/10 02:49:48;;;;;;;72.50;35.67;;;-1.90;99.90;;;;;;7351276;19;20528;-48
2022/12/10 02:52:19;;;;;;;71.25;35.75;;;-1.80;99.90;;;;;;7360851;19;20023;-46
2022/12/10 02:54:49;;;;;;;77.65;38.17;;;-1.90;99.90;;;;;;7360698;19;20035;-49
2022/12/10 02:57:59;;;;;;;68.90;33.20;;;-1.90;99.90;;;;;;7366868;19;20014;-50
2022/12/10 03:00:27;;;;;;;73.25;33.10;;;-1.90;99.90;;;;;;7362125;19;20817;-49
2022/12/10 03:03:22;;;;;;;75.47;33.75;;;-2.00;99.90;;;;;;7352288;19;20471;-47
2022/12/10 03:06:04;;;;;;;78.70;37.22;;;-2.00;99.90;;;;;;7362033;19;20026;-45
2022/12/10 03:09:03;;;;;;;73.88;36.47;;;-2.00;99.90;;;;;;7364964;19;20970;-50
2022/12/10 03:11:30;;;;;;;75.35;34.92;;;-2.00;99.90;;;;;;7356384;19;20022;-50
2022/12/10 03:14:08;;;;;;;76.45;36.00;;;-2.10;99.90;;;;;;7366362;19;20379;-45
2022/12/10 03:16:46;;;;;;;64.57;32.45;;;-2.10;99.90;;;;;;7365045;19;20306;-50
2022/12/10 03:19:19;;;;;;;79.13;34.95;;;-2.10;99.90;;;;;;7364399;19;20350;-49
2022/12/10 03:21:49;;;;;;;67.88;34.38;;;-2.10;99.90;;;;;;7362357;19;20121;-48
2022/12/10 03:24:16;;;;;;;72.50;34.67;;;-2.20;99.90;;;;;;7354946;19;20026;-49
2022/12/10 03:26:47;;;;;;;68.10;34.33;;;-2.20;99.90;;;;;;7359173;19;20014;-50
2022/12/10 03:29:43;;;;;;;70.88;34.00;;;-2.20;99.90;;;;;;7366860;19;20021;-51
2022/12/10 03:32:10;;;;;;;73.95;34.95;;;-2.30;99.90;;;;;;7365212;19;20362;-50
2022/12/10 03:34:38;;;;;;;72.05;35.67;;;-2.30;99.90;;;;;;7364689;19;20023;-48
2022/12/10 03:37:05;;;;;;;73.50;33.83;;;-2.30;99.90;;;;;;7365295;19;20033;-53
2022/12/10 03:39:33;;;;;;;70.60;34.08;;;-2.30;99.90;;;;;;7361622;19;20043;-51
2022/12/10 03:41:59;;;;;;;75.40;33.13;;;-2.30;99.90;;;;;;7361366;19;20493;-50
2022/12/10 03:44:35;;;;;;;69.10;32.92;;;-2.40;99.90;;;;;;7362384;19;20029;-51
2022/12/10 03:47:03;;;;;;;68.47;35.00;;;-2.40;99.90;;;;;;7362451;19;20443;-49
2022/12/10 03:49:29;;;;;;;76.13;34.70;;;-2.40;99.90;;;;;;7347707;19;20041;-51
2022/12/10 03:51:56;;;;;;;71.28;34.33;;;-2.40;99.90;;;;;;7356869;19;20019;-52
2022/12/10 03:54:22;;;;;;;72.57;35.45;;;-2.40;99.90;;;;;;7365475;19;20035;-48
2022/12/10 03:56:49;;;;;;;78.45;35.35;;;-2.40;99.90;;;;;;7365237;19;20486;-51
2022/12/10 03:59:15;;;;;;;72.88;34.72;;;-2.40;99.90;;;;;;7362637;19;20030;-49
2022/12/10 04:01:41;;;;;;;72.05;35.80;;;-2.40;99.90;;;;;;7363587;19;20894;-51
2022/12/10 04:04:08;;;;;;;74.32;34.97;;;-2.40;99.90;;;;;;7364230;19;20026;-50
2022/12/10 04:06:38;;;;;;;78.25;34.78;;;-2.40;99.90;;;;;;7368548;19;20498;-51
2022/12/10 04:09:05;;;;;;;75.78;34.53;;;-2.40;99.90;;;;;;7365299;19;20434;-49
2022/12/10 04:11:31;;;;;;;70.45;35.92;;;-2.50;99.90;;;;;;7366663;19;20879;-50
2022/12/10 04:16:43;;;;;;;77.85;35.83;;;-2.40;99.90;;;;;;7363718;19;20014;-47
2022/12/10 04:19:12;;;;;;;77.40;35.83;;;-2.40;99.90;;;;;;7362010;19;20093;-48
2022/12/10 04:27:25;;;;;;;78.95;35.22;;;-2.30;99.90;;;;;;7356007;19;20014;-50
2022/12/10 04:29:52;;;;;;;76.00;35.30;;;-2.30;99.90;;;;;;7355535;19;20624;-51
2022/12/10 04:32:20;;;;;;;76.13;36.85;;;-2.40;99.90;;;;;;7354243;19;20023;-52
2022/12/10 04:34:46;;;;;;;80.45;36.78;;;-2.40;99.90;;;;;;7362904;19;20026;-50
2022/12/10 04:37:13;;;;;;;73.90;34.28;;;-2.40;99.90;;;;;;7362143;19;20118;-52
2022/12/10 04:39:40;;;;;;;72.20;36.05;;;-2.40;99.90;;;;;;7365358;19;20022;-51
2022/12/10 04:42:07;;;;;;;74.13;34.85;;;-2.40;99.90;;;;;;7359780;19;20587;-51
2022/12/10 04:44:33;;;;;;;68.63;33.88;;;-2.40;99.90;;;;;;7363157;19;20408;-49
2022/12/10 04:47:00;;;;;;;69.68;34.20;;;-2.40;99.90;;;;;;7361978;19;20015;-51
2022/12/10 04:49:30;;;;;;;75.47;35.10;;;-2.40;99.90;;;;;;7359022;19;20022;-50
2022/12/10 04:51:58;;;;;;;71.38;34.78;;;-2.50;99.90;;;;;;7360407;19;20022;-47
2022/12/10 04:54:24;;;;;;;72.25;35.22;;;-2.50;99.90;;;;;;7366278;19;20025;-48
2022/12/10 04:56:51;;;;;;;73.00;35.30;;;-2.50;99.90;;;;;;7367766;19;20021;-47
2022/12/10 04:59:19;;;;;;;73.95;36.05;;;-2.50;99.90;;;;;;7361935;19;20030;-47
2022/12/10 05:01:45;;;;;;;67.53;33.33;;;-2.50;99.90;;;;;;7359274;19;20018;-49
2022/12/10 05:04:14;;;;;;;81.60;37.35;;;-2.50;99.90;;;;;;7369084;19;20015;-50
2022/12/10 05:06:41;;;;;;;74.15;34.15;;;-2.60;99.90;;;;;;7371122;19;20090;-50
2022/12/10 05:09:09;;;;;;;75.63;34.38;;;-2.60;99.90;;;;;;7366985;19;20014;-49
2022/12/10 05:11:35;;;;;;;70.85;35.40;;;-2.60;99.90;;;;;;7370924;19;20035;-48
2022/12/10 05:14:02;;;;;;;64.05;31.10;;;-2.60;99.90;;;;;;7370069;19;20641;-48
2022/12/10 05:16:30;;;;;;;68.10;33.05;;;-2.60;99.90;;;;;;7369322;19;20035;-49
2022/12/10 05:18:58;;;;;;;73.07;35.47;;;-2.60;99.90;;;;;;7372740;19;20525;-50
2022/12/10 05:24:11;;;;;;;72.70;35.80;;;-2.70;99.90;;;;;;7370837;19;20058;-44
2022/12/10 05:26:37;;;;;;;77.57;36.28;;;-2.70;99.90;;;;;;7369431;19;20092;-51
2022/12/10 05:29:04;;;;;;;70.30;35.35;;;-2.70;99.90;;;;;;7370575;19;20061;-48
2022/12/10 05:31:39;;;;;;;80.47;36.50;;;-2.70;99.90;;;;;;7361518;19;20022;-51
2022/12/10 05:34:08;;;;;;;77.38;35.92;;;-2.70;99.90;;;;;;7365144;19;20613;-52
2022/12/10 05:36:34;;;;;;;65.68;32.22;;;-2.80;99.90;;;;;;7360496;19;20010;-49
2022/12/10 05:39:00;;;;;;;74.95;37.00;;;-2.80;99.90;;;;;;7365480;19;20018;-48
2022/12/10 05:41:29;;;;;;;68.32;33.90;;;-2.80;99.90;;;;;;7357225;19;20018;-48
2022/12/10 05:43:57;;;;;;;74.03;34.50;;;-2.80;99.90;;;;;;7366511;19;20516;-45
2022/12/10 05:46:29;;;;;;;72.22;34.78;;;-2.80;99.90;;;;;;7364402;19;22074;-49
2022/12/10 05:49:06;;;;;;;80.15;34.30;;;-2.80;99.90;;;;;;7366143;19;20025;-49
2022/12/10 05:51:36;;;;;;;72.82;34.00;;;-2.80;99.90;;;;;;7365430;19;20022;-47
2022/12/10 05:54:05;;;;;;;73.55;33.88;;;-2.80;99.90;;;;;;7369095;19;20481;-45
2022/12/10 05:56:31;;;;;;;71.35;34.03;;;-2.80;99.90;;;;;;7363339;19;20518;-44
2022/12/10 05:59:03;;;;;;;81.32;39.90;;;-2.80;99.90;;;;;;7366567;19;20018;-48
2022/12/10 06:01:32;;;;;;;71.18;33.80;;;-2.80;99.90;;;;;;7365103;19;20372;-46
2022/12/10 06:04:01;;;;;;;73.45;34.60;;;-2.80;99.90;;;;;;7365462;19;20477;-47
2022/12/10 06:06:31;;;;;;;72.70;32.80;;;-2.80;99.90;;;;;;7362134;19;20439;-47
2022/12/10 06:09:02;;;;;;;76.57;36.88;;;-2.70;99.90;;;;;;7366052;19;20011;-48
2022/12/10 06:11:29;;;;;;;72.10;36.70;;;-2.80;99.90;;;;;;7358152;19;20523;-45
2022/12/10 06:13:59;;;;;;;77.00;35.15;;;-2.80;99.90;;;;;;7364887;19;20056;-45
2022/12/10 06:16:27;;;;;;;75.25;36.25;;;-2.80;99.90;;;;;;7365881;19;20014;-44
2022/12/10 06:18:54;;;;;;;71.93;36.55;;;-2.80;99.90;;;;;;7365538;19;20039;-45
2022/12/10 06:21:20;;;;;;;78.47;36.15;;;-2.80;99.90;;;;;;7364660;19;20014;-47
2022/12/10 06:23:51;;;;;;;74.93;35.65;;;-2.80;99.90;;;;;;7355745;19;20062;-47
2022/12/10 06:26:23;;;;;;;69.65;35.30;;;-2.80;99.90;;;;;;7362750;19;20018;-44
2022/12/10 06:28:50;;;;;;;85.45;38.55;;;-2.80;99.90;;;;;;7362504;19;20065;-46
2022/12/10 06:31:18;;;;;;;70.82;34.40;;;-2.80;99.90;;;;;;7364304;19;20113;-46
2022/12/10 06:33:44;;;;;;;73.50;35.60;;;-2.80;99.90;;;;;;7362863;19;20040;-48
2022/12/10 06:36:14;;;;;;;66.10;33.83;;;-2.80;99.90;;;;;;7362157;19;20018;-43
2022/12/10 06:38:44;;;;;;;67.22;34.80;;;-2.80;99.90;;;;;;7363075;19;20018;-44
2022/12/10 06:41:14;;;;;;;71.07;33.90;;;-2.90;99.90;;;;;;7362516;19;20014;-48
2022/12/10 06:43:47;;;;;;;78.72;35.63;;;-2.80;99.90;;;;;;7361517;19;20059;-48
2022/12/10 06:46:17;;;;;;;78.45;34.72;;;-2.90;99.90;;;;;;7363653;19;20029;-47
2022/12/10 06:48:44;;;;;;;71.32;34.85;;;-2.80;99.90;;;;;;7359475;19;20025;-48
2022/12/10 06:51:11;;;;;;;75.35;36.60;;;-2.80;99.90;;;;;;7361191;19;20039;-45
2022/12/10 06:53:40;;;;;;;71.20;38.30;;;-2.80;99.90;;;;;;7362771;19;20090;-47
2022/12/10 06:56:11;;;;;;;77.90;37.28;;;-2.80;99.90;;;;;;7356879;19;20022;-45
2022/12/10 06:58:43;;;;;;;76.95;35.45;;;-2.80;99.90;;;;;;7358929;19;20018;-47
2022/12/10 07:01:22;;;;;;;74.63;35.65;;;-2.80;99.90;;;;;;7353673;19;20547;-48
2022/12/10 07:03:53;;;;;;;79.82;35.33;;;-2.80;99.90;;;;;;7356091;19;20543;-44
2022/12/10 07:06:20;;;;;;;80.28;36.50;;;-2.80;99.90;;;;;;7356027;19;20659;-48
2022/12/10 07:08:47;;;;;;;83.72;36.95;;;-2.80;99.90;;;;;;7363240;19;20036;-45
2022/12/10 07:11:16;;;;;;;72.40;35.60;;;-2.90;99.90;;;;;;7357044;19;20022;-44
2022/12/10 07:13:43;;;;;;;73.28;34.15;;;-2.80;99.90;;;;;;7362515;19;20514;-48
2022/12/10 07:16:25;;;;;;;70.63;35.05;;;-2.90;99.90;;;;;;7360814;19;20399;-46
2022/12/10 07:18:52;;;;;;;75.40;38.20;;;-2.80;99.90;;;;;;7357821;19;20108;-49
2022/12/10 07:21:23;;;;;;;77.88;36.28;;;-2.90;99.90;;;;;;7360992;19;20037;-48
2022/12/10 07:23:57;;;;;;;81.25;36.05;;;-2.80;99.90;;;;;;7357182;19;20432;-47
2022/12/10 07:26:25;;;;;;;77.75;35.90;;;-2.80;99.90;;;;;;7360330;19;20018;-48
2022/12/10 07:28:51;;;;;;;77.18;37.13;;;-2.70;99.90;;;;;;7357318;19;20018;-44
2022/12/10 07:31:20;;;;;;;79.68;36.88;;;-2.70;99.90;;;;;;7354551;19;20019;-45
2022/12/10 07:33:46;;;;;;;80.68;37.30;;;-2.70;99.90;;;;;;7358067;19;20026;-45
2022/12/10 07:36:14;;;;;;;79.93;36.90;;;-2.70;99.90;;;;;;7360188;19;20416;-47
2022/12/10 07:38:42;;;;;;;78.80;37.63;;;-2.60;99.90;;;;;;7358079;19;20026;-45
2022/12/10 07:41:11;;;;;;;80.15;37.33;;;-2.50;99.90;;;;;;7356358;19;20385;-49
2022/12/10 07:43:40;;;;;;;77.05;37.50;;;-2.50;99.90;;;;;;7354754;19;20015;-45
2022/12/10 07:46:20;;;;;;;85.35;39.35;;;-2.40;99.90;;;;;;7353951;19;20039;-47
2022/12/10 07:48:48;;;;;;;80.88;37.30;;;-2.30;99.90;;;;;;7352035;19;20432;-46
2022/12/10 07:51:16;;;;;;;82.53;40.13;;;-2.30;99.90;;;;;;7362786;19;20419;-45
2022/12/10 07:53:44;;;;;;;85.93;38.13;;;-2.20;99.90;;;;;;7359790;19;20011;-47
2022/12/10 07:56:11;;;;;;;76.28;37.42;;;-2.20;99.90;;;;;;7358775;19;20497;-47
2022/12/10 07:58:40;;;;;;;80.97;37.10;;;-2.10;99.90;;;;;;7362976;19;20493;-52
2022/12/10 08:01:08;;;;;;;77.72;37.17;;;-2.00;99.90;;;;;;7358429;19;20089;-50
2022/12/10 08:03:35;;;;;;;76.57;36.30;;;-2.00;99.90;;;;;;7362938;19;20041;-51
2022/12/10 08:06:04;;;;;;;76.13;38.08;;;-1.90;99.90;;;;;;7360148;19;20014;-47
2022/12/10 08:08:42;;;;;;;87.93;39.97;;;-1.90;99.90;;;;;;7355622;19;20038;-47
2022/12/10 08:11:08;;;;;;;82.47;38.17;;;-1.90;99.90;;;;;;7356065;19;20022;-45
2022/12/10 08:13:35;;;;;;;82.75;37.88;;;-1.80;99.90;;;;;;7358601;19;20026;-46
2022/12/10 08:16:08;;;;;;;76.88;36.80;;;-1.80;99.90;;;;;;7359166;19;20047;-48
2022/12/10 08:18:34;;;;;;;71.88;35.05;;;-1.80;99.90;;;;;;7355394;19;20022;-48
2022/12/10 08:21:06;;;;;;;76.88;38.78;;;-1.80;99.90;;;;;;7360830;19;20028;-48
2022/12/10 08:23:46;;;;;;;74.05;36.92;;;-1.80;99.90;;;;;;7355388;19;20557;-44
2022/12/10 08:26:20;;;;;;;71.22;36.25;;;-1.90;99.90;;;;;;7359739;19;21120;-49
2022/12/10 08:28:48;;;;;;;70.07;37.15;;;-1.90;99.90;;;;;;7357349;19;20034;-44
2022/12/10 08:31:16;;;;;;;75.32;35.40;;;-1.90;99.90;;;;;;7365147;19;20014;-45
2022/12/10 08:33:43;;;;;;;84.32;40.72;;;-1.80;99.90;;;;;;7361479;19;20030;-48
2022/12/10 08:36:15;;;;;;;75.32;36.83;;;-1.70;99.90;;;;;;7364898;19;20632;-50
2022/12/10 08:38:43;;;;;;;76.28;37.80;;;-1.60;99.90;;;;;;7366448;19;20061;-51
2022/12/10 08:41:15;;;;;;;73.25;37.38;;;-1.50;99.90;;;;;;7365839;19;20010;-50
2022/12/10 08:43:41;;;;;;;70.70;36.38;;;-1.60;99.90;;;;;;7365939;19;20014;-46
2022/12/10 08:46:08;;;;;;;70.57;36.70;;;-1.60;99.90;;;;;;7361358;19;20594;-48
2022/12/10 08:48:35;;;;;;;74.07;36.58;;;-1.60;99.90;;;;;;7362034;19;20121;-51
2022/12/10 08:51:03;;;;;;;74.18;37.00;;;-1.60;99.90;;;;;;7364531;19;20026;-51
2022/12/10 08:53:31;;;;;;;74.07;38.15;;;-1.60;99.90;;;;;;7364894;19;20019;-51
2022/12/10 08:55:58;;;;;;;66.82;37.67;;;-1.70;99.90;;;;;;7366564;19;20022;-51
2022/12/10 08:58:24;;;;;;;79.63;37.95;;;-1.60;99.90;;;;;;7364318;19;20022;-49
2022/12/10 09:00:51;;;;;;;76.82;37.53;;;-1.60;99.90;;;;;;7358044;19;20294;-48
2022/12/10 09:03:18;;;;;;;72.70;37.30;;;-1.50;99.90;;;;;;7361130;19;20015;-48
2022/12/10 09:05:45;;;;;;;75.80;36.40;;;-1.40;99.90;;;;;;7363004;19;20487;-44
2022/12/10 09:08:11;;;;;;;71.68;35.65;;;-1.40;99.90;;;;;;7365488;19;20502;-46
2022/12/10 09:10:39;;;;;;;73.70;37.22;;;-1.30;99.90;;;;;;7367325;19;20795;-47
2022/12/10 09:13:06;;;;;;;77.85;38.38;;;-1.20;99.90;;;;;;7363128;19;20022;-55
2022/12/10 09:15:32;;;;;;;76.65;39.97;;;-1.10;99.90;;;;;;7367580;19;20137;-49
2022/12/10 09:17:58;;;;;;;76.78;38.05;;;-1.10;99.90;;;;;;7364435;19;20498;-52
2022/12/10 09:20:25;;;;;;;71.60;36.65;;;-1.00;99.90;;;;;;7359024;19;20375;-49
2022/12/10 09:22:51;;;;;;;76.30;36.88;;;-1.00;99.90;;;;;;7348450;19;20018;-47
2022/12/10 09:25:20;;;;;;;82.15;38.90;;;-1.00;99.90;;;;;;7357258;19;20616;-47
2022/12/10 09:27:47;;;;;;;71.35;38.20;;;-1.00;99.90;;;;;;7365085;19;20014;-45
2022/12/10 09:30:15;;;;;;;75.03;38.63;;;-1.00;99.90;;;;;;7362494;19;20019;-46
2022/12/10 09:32:41;;;;;;;71.45;36.50;;;-1.00;99.90;;;;;;7362727;19;20031;-45
2022/12/10 09:35:08;;;;;;;71.70;38.08;;;-0.90;99.90;;;;;;7366402;19;20594;-48
2022/12/10 09:37:34;;;;;;;77.35;38.28;;;-1.00;99.90;;;;;;7363437;19;20014;-50
2022/12/10 09:40:01;;;;;;;70.40;37.67;;;-0.90;99.90;;;;;;7366760;19;20025;-47
2022/12/10 09:43:04;;;;;;;75.90;36.88;;;-0.80;99.90;;;;;;7354634;19;20053;-47
2022/12/10 09:46:32;;;;;;;69.82;38.80;;;-0.90;99.90;;;;;;7359588;19;20344;-45
2022/12/10 09:49:29;;;;;;;67.63;36.30;;;-0.90;99.90;;;;;;7353866;19;20117;-45
2022/12/10 09:52:20;;;;;;;70.15;36.70;;;-0.90;99.90;;;;;;7357932;19;20229;-45
2022/12/10 09:55:19;;;;;;;78.18;37.60;;;-0.90;99.90;;;;;;7360232;19;20022;-48
2022/12/10 09:58:13;;;;;;;82.18;38.00;;;-0.80;99.90;;;;;;7354110;19;20025;-47
2022/12/10 10:01:04;;;;;;;75.35;36.85;;;-0.90;99.90;;;;;;7361134;19;20498;-44
2022/12/10 10:03:50;;;;;;;78.63;40.45;;;-0.90;99.90;;;;;;7362542;19;20018;-45
2022/12/10 10:06:37;;;;;;;72.32;37.13;;;-0.90;99.90;;;;;;7359224;19;20014;-47
2022/12/10 10:09:24;;;;;;;76.10;39.10;;;-0.90;99.90;;;;;;7361734;19;20027;-48
2022/12/10 10:12:14;;;;;;;73.15;36.95;;;-0.80;99.90;;;;;;7359538;19;20023;-49
2022/12/10 10:15:13;;;;;;;72.00;35.63;;;-0.80;99.90;;;;;;7355615;19;20445;-45
2022/12/10 10:18:22;;;;;;;75.10;37.67;;;-0.70;99.90;;;;;;7360478;19;20018;-46
2022/12/10 10:20:49;;;;;;;84.25;40.92;;;-0.70;99.90;;;;;;7366689;19;20014;-45
2022/12/10 10:23:19;;;;;;;79.18;37.10;;;-0.70;99.90;;;;;;7358207;19;20076;-45
2022/12/10 10:25:45;;;;;;;82.95;40.80;;;-0.70;99.90;;;;;;7356363;19;20028;-46
2022/12/10 10:28:16;;;;;;;81.13;38.67;;;-0.70;99.90;;;;;;7361787;19;20035;-50
2022/12/10 10:30:44;;;;;;;85.40;39.45;;;-0.60;99.90;;;;;;7360501;19;20022;-49
2022/12/10 10:33:13;;;;;;;77.30;40.00;;;-0.70;99.90;;;;;;7360950;19;20448;-48
2022/12/10 10:35:49;;;;;;;80.93;41.85;;;-0.70;99.90;;;;;;7359389;19;20491;-50
2022/12/10 10:38:27;;;;;;;88.85;42.35;;;-0.60;99.90;;;;;;7366865;19;20060;-47
2022/12/10 10:40:59;;;;;;;76.47;38.88;;;-0.60;99.90;;;;;;7356103;19;20408;-49
2022/12/10 10:43:30;;;;;;;81.93;39.00;;;-0.60;99.90;;;;;;7363321;19;20148;-49
2022/12/10 10:46:02;;;;;;;79.90;38.35;;;-0.50;99.90;;;;;;7364386;19;20035;-49
2022/12/10 10:48:29;;;;;;;84.23;39.33;;;-0.50;99.90;;;;;;7357332;19;20719;-46
2022/12/10 10:51:23;;;;;;;77.13;37.40;;;-0.40;99.90;;;;;;7364704;19;20074;-49
2022/12/10 10:53:55;;;;;;;79.95;38.33;;;-0.40;99.90;;;;;;7361540;19;20025;-50
2022/12/10 10:56:24;;;;;;;81.50;39.15;;;-0.30;99.90;;;;;;7361608;19;20478;-48
2022/12/10 10:58:56;;;;;;;77.82;37.47;;;-0.30;99.90;;;;;;7364910;19;20014;-48
2022/12/10 11:02:20;;;;;;;80.90;36.83;;;-0.30;99.90;;;;;;7359843;19;20743;-48
2022/12/10 11:04:52;;;;;;;74.07;35.03;;;-0.30;99.90;;;;;;7351176;19;20101;-48
2022/12/10 11:07:18;;;;;;;73.15;34.83;;;-0.40;99.90;;;;;;7354244;19;20040;-50
2022/12/10 11:09:45;;;;;;;75.55;35.05;;;-0.50;99.90;;;;;;7357058;19;20018;-52
2022/12/10 11:12:32;;;;;;;72.43;37.00;;;-0.50;99.90;;;;;;7355768;19;20021;-50
2022/12/10 11:14:58;;;;;;;82.50;38.20;;;-0.50;99.90;;;;;;7353184;19;20074;-49
2022/12/10 11:17:26;;;;;;;78.43;36.92;;;-0.50;99.90;;;;;;7354016;19;20022;-52
2022/12/10 11:20:15;;;;;;;83.82;38.33;;;-0.50;99.90;;;;;;7356663;19;20019;-47
2022/12/10 11:22:50;;;;;;;87.40;43.15;;;-0.50;99.90;;;;;;7353344;19;20033;-50
2022/12/10 11:25:19;;;;;;;81.78;37.47;;;-0.40;99.90;;;;;;7358238;19;20435;-49
2022/12/10 11:28:05;;;;;;;74.38;37.50;;;-0.30;99.90;;;;;;7358678;19;20025;-52
2022/12/10 11:31:00;;;;;;;72.15;35.10;;;-0.40;99.90;;;;;;7360038;19;20022;-48
2022/12/10 11:33:49;;;;;;;72.78;36.85;;;-0.40;99.90;;;;;;7354264;19;20045;-51
2022/12/10 11:36:42;;;;;;;76.18;36.03;;;-0.40;99.90;;;;;;7359403;19;20739;-52
2022/12/10 11:39:33;;;;;;;79.97;37.67;;;-0.40;99.90;;;;;;7361317;19;20023;-50
2022/12/10 11:42:34;;;;;;;81.75;39.03;;;-0.40;99.90;;;;;;7355273;19;20682;-47
2022/12/10 11:45:28;;;;;;;83.07;40.22;;;-0.40;99.90;;;;;;7355037;19;20014;-52
2022/12/10 11:48:04;;;;;;;85.03;38.97;;;-0.30;99.90;;;;;;7353710;19;20026;-52
2022/12/10 11:50:42;;;;;;;82.90;37.60;;;-0.30;99.90;;;;;;7355792;19;20541;-52
2022/12/10 11:53:33;;;;;;;84.50;38.10;;;-0.30;99.90;;;;;;7357004;19;20014;-52
2022/12/10 11:56:15;;;;;;;80.25;37.00;;;-0.30;99.90;;;;;;7359165;19;20632;-47
2022/12/10 11:58:47;;;;;;;79.63;40.88;;;-0.30;99.90;;;;;;7355877;19;22135;-47
2022/12/10 12:01:39;;;;;;;67.18;34.25;;;-0.20;99.90;;;;;;7352001;19;20037;-51
2022/12/10 12:04:26;;;;;;;66.50;33.33;;;-0.20;99.90;;;;;;7359552;19;20030;-51
2022/12/10 12:06:55;;;;;;;71.30;35.70;;;-0.20;99.90;;;;;;7364960;19;20014;-49
2022/12/10 12:09:24;;;;;;;66.53;34.97;;;-0.30;99.90;;;;;;7363631;19;20113;-48
2022/12/10 12:11:53;;;;;;;65.10;31.25;;;-0.20;99.90;;;;;;7366967;19;20612;-51
2022/12/10 12:14:28;;;;;;;73.07;34.88;;;-0.20;99.90;;;;;;7360993;19;20359;-50
2022/12/10 12:17:19;;;;;;;70.88;33.80;;;-0.10;99.90;;;;;;7357520;19;20494;-50
2022/12/10 12:20:00;;;;;;;69.40;34.42;;;-0.10;99.90;;;;;;7362615;19;20015;-51
2022/12/10 12:22:38;;;;;;;68.65;32.63;;;-0.20;99.90;;;;;;7367939;19;20022;-48
2022/12/10 12:25:35;;;;;;;67.60;33.05;;;-0.10;99.90;;;;;;7363563;19;20572;-51
2022/12/10 12:28:23;;;;;;;68.03;34.92;;;-0.10;99.90;;;;;;7364413;19;20491;-54
2022/12/10 12:30:59;;;;;;;65.90;31.85;;;-0.10;99.90;;;;;;7366211;19;20045;-49
2022/12/10 12:33:34;;;;;;;71.55;33.55;;;0.00;99.90;;;;;;7367353;19;20025;-49
2022/12/10 12:36:14;;;;;;;67.68;31.65;;;0.00;99.90;;;;;;7363467;19;20481;-49
2022/12/10 12:38:59;;;;;;;72.15;35.90;;;-0.10;99.90;;;;;;7365227;19;20357;-50
2022/12/10 12:41:48;;;;;;;75.20;35.85;;;-0.10;99.90;;;;;;7366096;19;20031;-52
2022/12/10 12:44:29;;;;;;;74.25;37.72;;;-0.20;99.90;;;;;;7365088;19;20014;-52
2022/12/10 12:47:02;;;;;;;71.22;33.90;;;-0.20;99.90;;;;;;7362576;19;20021;-51
2022/12/10 12:49:34;;;;;;;79.55;34.53;;;-0.20;99.90;;;;;;7362810;19;20240;-52
2022/12/10 12:52:37;;;;;;;79.15;35.08;;;-0.20;99.90;;;;;;7361293;19;20041;-51
2022/12/10 12:55:21;;;;;;;79.05;36.70;;;-0.20;99.90;;;;;;7361516;19;20437;-53
2022/12/10 12:58:02;;;;;;;86.53;36.35;;;-0.20;99.90;;;;;;7364084;19;20288;-45
2022/12/10 13:00:35;;;;;;;89.70;37.27;;;-0.10;99.90;;;;;;7365380;19;20026;-45
2022/12/10 13:03:24;;;;;;;83.65;39.45;;;-0.10;99.90;;;;;;7363816;19;21069;-46
2022/12/10 13:06:25;;;;;;;101.25;38.05;;;-0.10;99.90;;;;;;7360332;19;20027;-47
2022/12/10 13:09:13;;;;;;;78.68;36.75;;;-0.20;99.90;;;;;;7368067;19;20022;-49
2022/12/10 13:12:10;;;;;;;91.40;37.40;;;-0.10;99.90;;;;;;7363866;19;20450;-53